createdAt,value
2023-05-23T00:00:58.273Z,22.79
2023-05-23T00:01:58.295Z,22.79
2023-05-23T00:02:58.299Z,22.80
2023-05-23T00:03:58.339Z,22.80
2023-05-23T00:04:58.289Z,22.80
2023-05-23T00:05:58.180Z,22.79
2023-05-23T00:06:58.150Z,22.80
2023-05-23T00:07:58.135Z,22.80
2023-05-23T00:08:58.127Z,22.80
2023-05-23T00:09:58.116Z,22.80
2023-05-23T00:10:58.085Z,22.79
2023-05-23T00:11:58.054Z,22.79
2023-05-23T00:12:58.032Z,22.79
2023-05-23T00:13:58.031Z,22.78
2023-05-23T00:14:58.018Z,22.78
2023-05-23T00:15:58.011Z,22.78
2023-05-23T00:16:57.992Z,22.79
2023-05-23T00:17:57.997Z,22.78
2023-05-23T00:18:58.049Z,22.77
2023-05-23T00:19:57.954Z,22.78
2023-05-23T00:20:57.985Z,22.77
2023-05-23T00:21:57.920Z,22.76
2023-05-23T00:22:57.897Z,22.76
2023-05-23T00:23:57.971Z,22.77
2023-05-23T00:24:57.926Z,22.76
2023-05-23T00:25:58.419Z,22.75
2023-05-23T00:26:57.801Z,22.75
2023-05-23T00:27:57.814Z,22.77
2023-05-23T00:28:57.906Z,22.77
2023-05-23T00:29:57.799Z,22.76
2023-05-23T00:30:57.809Z,22.75
2023-05-23T00:31:57.912Z,22.75
2023-05-23T00:32:57.875Z,22.75
2023-05-23T00:33:57.917Z,22.75
2023-05-23T00:34:57.897Z,22.75
2023-05-23T00:35:57.808Z,22.76
2023-05-23T00:36:57.920Z,22.75
2023-05-23T00:37:57.943Z,22.76
2023-05-23T00:38:57.948Z,22.75
2023-05-23T00:39:58.105Z,22.74
2023-05-23T00:40:58.013Z,22.74
2023-05-23T00:41:58.051Z,22.73
2023-05-23T00:42:57.922Z,22.73
2023-05-23T00:43:57.978Z,22.73
2023-05-23T00:44:57.983Z,22.74
2023-05-23T00:45:58.022Z,22.74
2023-05-23T00:46:57.968Z,22.74
2023-05-23T00:47:57.981Z,22.74
2023-05-23T00:48:58.018Z,22.74
2023-05-23T00:49:58.060Z,22.74
2023-05-23T00:50:57.969Z,22.74
2023-05-23T00:51:57.988Z,22.74
2023-05-23T00:52:58.077Z,22.73
2023-05-23T00:53:58.000Z,22.74
2023-05-23T00:54:57.986Z,22.73
2023-05-23T00:55:57.979Z,22.73
2023-05-23T00:56:57.966Z,22.72
2023-05-23T00:57:58.053Z,22.71
2023-05-23T00:58:58.021Z,22.72
2023-05-23T00:59:58.003Z,22.73
2023-05-23T01:00:57.996Z,22.74
2023-05-23T01:01:58.162Z,22.73
2023-05-23T01:02:58.208Z,22.72
2023-05-23T01:03:58.040Z,22.71
2023-05-23T01:04:58.042Z,22.71
2023-05-23T01:05:58.081Z,22.70
2023-05-23T01:06:58.023Z,22.69
2023-05-23T01:07:57.984Z,22.70
2023-05-23T01:08:58.062Z,22.70
2023-05-23T01:09:58.928Z,22.71
2023-05-23T01:10:57.977Z,22.71
2023-05-23T01:11:57.959Z,22.71
2023-05-23T01:12:57.979Z,22.71
2023-05-23T01:13:58.432Z,22.71
2023-05-23T01:14:57.983Z,22.70
2023-05-23T01:15:59.162Z,22.69
2023-05-23T01:16:58.085Z,22.69
2023-05-23T01:17:58.069Z,22.69
2023-05-23T01:18:58.078Z,22.69
2023-05-23T01:19:58.034Z,22.69
2023-05-23T01:20:58.014Z,22.69
2023-05-23T01:21:58.038Z,22.68
2023-05-23T01:22:58.923Z,22.68
2023-05-23T01:23:58.425Z,22.69
2023-05-23T01:24:58.089Z,22.69
2023-05-23T01:25:58.003Z,22.68
2023-05-23T01:26:58.043Z,22.69
2023-05-23T01:27:58.044Z,22.69
2023-05-23T01:28:58.043Z,22.69
2023-05-23T01:29:58.035Z,22.70
2023-05-23T01:30:58.034Z,22.68
2023-05-23T01:31:58.006Z,22.68
2023-05-23T01:32:58.101Z,22.67
2023-05-23T01:33:58.074Z,22.67
2023-05-23T01:34:57.968Z,22.67
2023-05-23T01:35:58.059Z,22.65
2023-05-23T01:36:58.004Z,22.66
2023-05-23T01:37:58.054Z,22.66
2023-05-23T01:38:58.429Z,22.67
2023-05-23T01:39:57.972Z,22.66
2023-05-23T01:40:58.001Z,22.66
2023-05-23T01:41:58.017Z,22.66
2023-05-23T01:42:58.092Z,22.66
2023-05-23T01:43:57.934Z,22.66
2023-05-23T01:44:57.969Z,22.67
2023-05-23T01:45:57.959Z,22.68
2023-05-23T01:46:57.853Z,22.68
2023-05-23T01:47:57.889Z,22.67
2023-05-23T01:48:57.843Z,22.67
2023-05-23T01:49:57.826Z,22.67
2023-05-23T01:50:57.822Z,22.66
2023-05-23T01:51:57.816Z,22.67
2023-05-23T01:52:57.958Z,22.67
2023-05-23T01:53:57.835Z,22.66
2023-05-23T01:54:57.825Z,22.65
2023-05-23T01:55:57.821Z,22.65
2023-05-23T01:56:57.873Z,22.64
2023-05-23T01:57:57.868Z,22.64
2023-05-23T01:58:57.781Z,22.64
2023-05-23T01:59:57.867Z,22.64
2023-05-23T02:00:57.787Z,22.65
2023-05-23T02:01:57.756Z,22.65
2023-05-23T02:02:57.872Z,22.65
2023-05-23T02:03:57.734Z,22.66
2023-05-23T02:04:57.977Z,22.66
2023-05-23T02:05:57.741Z,22.65
2023-05-23T02:06:57.664Z,22.65
2023-05-23T02:07:57.750Z,22.64
2023-05-23T02:08:57.775Z,22.64
2023-05-23T02:09:57.762Z,22.63
2023-05-23T02:10:57.606Z,22.62
2023-05-23T02:11:57.593Z,22.60
2023-05-23T02:12:57.704Z,22.62
2023-05-23T02:13:57.588Z,22.63
2023-05-23T02:14:57.525Z,22.62
2023-05-23T02:15:57.520Z,22.63
2023-05-23T02:16:57.519Z,22.62
2023-05-23T02:17:57.522Z,22.64
2023-05-23T02:18:57.466Z,22.64
2023-05-23T02:19:57.464Z,22.63
2023-05-23T02:20:57.447Z,22.62
2023-05-23T02:21:57.421Z,22.61
2023-05-23T02:22:57.392Z,22.60
2023-05-23T02:23:57.362Z,22.61
2023-05-23T02:24:57.352Z,22.62
2023-05-23T02:25:57.337Z,22.62
2023-05-23T02:26:57.302Z,22.64
2023-05-23T02:27:57.292Z,22.62
2023-05-23T02:28:57.360Z,22.61
2023-05-23T02:29:57.270Z,22.61
2023-05-23T02:30:57.250Z,22.61
2023-05-23T02:31:57.214Z,22.62
2023-05-23T02:32:57.250Z,22.60
2023-05-23T02:33:57.171Z,22.59
2023-05-23T02:34:57.705Z,22.61
2023-05-23T02:35:57.138Z,22.60
2023-05-23T02:36:57.106Z,22.60
2023-05-23T02:37:57.098Z,22.59
2023-05-23T02:38:57.081Z,22.60
2023-05-23T02:39:57.460Z,22.60
2023-05-23T02:40:57.044Z,22.59
2023-05-23T02:41:57.026Z,22.59
2023-05-23T02:42:57.030Z,22.58
2023-05-23T02:43:56.996Z,22.57
2023-05-23T02:44:57.081Z,22.56
2023-05-23T02:45:57.011Z,22.56
2023-05-23T02:46:56.948Z,22.56
2023-05-23T02:47:57.009Z,22.58
2023-05-23T02:48:56.943Z,22.58
2023-05-23T02:49:56.909Z,22.58
2023-05-23T02:50:56.902Z,22.59
2023-05-23T02:51:56.887Z,22.59
2023-05-23T02:52:56.860Z,22.58
2023-05-23T02:53:56.859Z,22.57
2023-05-23T02:54:56.842Z,22.57
2023-05-23T02:55:56.810Z,22.58
2023-05-23T02:56:56.823Z,22.57
2023-05-23T02:57:56.862Z,22.55
2023-05-23T02:58:56.833Z,22.55
2023-05-23T02:59:56.819Z,22.55
2023-05-23T03:00:56.808Z,22.55
2023-05-23T03:01:56.869Z,22.54
2023-05-23T03:02:56.866Z,22.55
2023-05-23T03:03:56.867Z,22.56
2023-05-23T03:04:56.774Z,22.56
2023-05-23T03:05:56.788Z,22.56
2023-05-23T03:06:56.812Z,22.56
2023-05-23T03:07:56.760Z,22.55
2023-05-23T03:08:56.762Z,22.57
2023-05-23T03:09:56.770Z,22.56
2023-05-23T03:10:56.732Z,22.55
2023-05-23T03:11:56.731Z,22.54
2023-05-23T03:12:56.700Z,22.53
2023-05-23T03:13:56.727Z,22.53
2023-05-23T03:14:56.686Z,22.53
2023-05-23T03:15:56.741Z,22.54
2023-05-23T03:16:56.747Z,22.55
2023-05-23T03:17:56.702Z,22.56
2023-05-23T03:18:56.696Z,22.55
2023-05-23T03:19:56.620Z,22.54
2023-05-23T03:20:56.608Z,22.54
2023-05-23T03:21:56.597Z,22.54
2023-05-23T03:22:56.577Z,22.54
2023-05-23T03:23:56.580Z,22.54
2023-05-23T03:24:56.563Z,22.54
2023-05-23T03:25:56.549Z,22.54
2023-05-23T03:26:56.531Z,22.53
2023-05-23T03:27:56.536Z,22.53
2023-05-23T03:28:56.538Z,22.54
2023-05-23T03:29:56.526Z,22.53
2023-05-23T03:30:56.497Z,22.51
2023-05-23T03:31:56.593Z,22.50
2023-05-23T03:32:56.648Z,22.50
2023-05-23T03:33:56.535Z,22.50
2023-05-23T03:34:56.506Z,22.51
2023-05-23T03:35:56.523Z,22.52
2023-05-23T03:36:56.496Z,22.50
2023-05-23T03:37:56.492Z,22.50
2023-05-23T03:38:56.507Z,22.50
2023-05-23T03:39:56.486Z,22.49
2023-05-23T03:40:56.472Z,22.50
2023-05-23T03:41:56.463Z,22.50
2023-05-23T03:42:56.445Z,22.50
2023-05-23T03:43:56.451Z,22.49
2023-05-23T03:44:56.421Z,22.50
2023-05-23T03:45:56.453Z,22.49
2023-05-23T03:46:56.398Z,22.49
2023-05-23T03:47:56.426Z,22.49
2023-05-23T03:48:56.389Z,22.51
2023-05-23T03:49:56.378Z,22.50
2023-05-23T03:50:56.358Z,22.49
2023-05-23T03:51:56.352Z,22.48
2023-05-23T03:52:56.329Z,22.48
2023-05-23T03:53:56.350Z,22.48
2023-05-23T03:54:56.301Z,22.50
2023-05-23T03:55:56.304Z,22.50
2023-05-23T03:56:56.286Z,22.48
2023-05-23T03:57:56.265Z,22.47
2023-05-23T03:58:56.270Z,22.46
2023-05-23T03:59:56.249Z,22.46
2023-05-23T04:00:56.269Z,22.47
2023-05-23T04:01:56.255Z,22.48
2023-05-23T04:02:56.246Z,22.49
2023-05-23T04:03:56.312Z,22.51
2023-05-23T04:04:56.310Z,22.50
2023-05-23T04:05:56.174Z,22.51
2023-05-23T04:06:56.168Z,22.49
2023-05-23T04:07:56.144Z,22.50
2023-05-23T04:08:56.147Z,22.49
2023-05-23T04:09:56.147Z,22.48
2023-05-23T04:10:56.155Z,22.48
2023-05-23T04:11:56.138Z,22.47
2023-05-23T04:12:56.123Z,22.48
2023-05-23T04:13:56.133Z,22.49
2023-05-23T04:14:56.117Z,22.49
2023-05-23T04:15:56.120Z,22.48
2023-05-23T04:16:56.101Z,22.48
2023-05-23T04:17:56.157Z,22.47
2023-05-23T04:18:56.143Z,22.48
2023-05-23T04:19:56.146Z,22.46
2023-05-23T04:20:56.234Z,22.47
2023-05-23T04:21:56.134Z,22.46
2023-05-23T04:22:56.147Z,22.47
2023-05-23T04:23:56.180Z,22.48
2023-05-23T04:24:56.177Z,22.48
2023-05-23T04:25:56.149Z,22.48
2023-05-23T04:26:56.164Z,22.47
2023-05-23T04:27:56.180Z,22.48
2023-05-23T04:28:56.175Z,22.47
2023-05-23T04:29:56.169Z,22.47
2023-05-23T04:30:56.179Z,22.46
2023-05-23T04:31:56.190Z,22.46
2023-05-23T04:32:56.210Z,22.48
2023-05-23T04:33:56.191Z,22.48
2023-05-23T04:34:56.201Z,22.48
2023-05-23T04:35:56.184Z,22.48
2023-05-23T04:36:56.259Z,22.49
2023-05-23T04:37:56.179Z,22.49
2023-05-23T04:38:56.174Z,22.48
2023-05-23T04:39:56.141Z,22.47
2023-05-23T04:40:56.163Z,22.46
2023-05-23T04:41:56.114Z,22.44
2023-05-23T04:42:56.112Z,22.45
2023-05-23T04:43:56.102Z,22.46
2023-05-23T04:44:56.085Z,22.45
2023-05-23T04:45:56.072Z,22.45
2023-05-23T04:46:56.117Z,22.45
2023-05-23T04:47:56.098Z,22.47
2023-05-23T04:48:56.082Z,22.48
2023-05-23T04:49:56.054Z,22.47
2023-05-23T04:50:56.063Z,22.46
2023-05-23T04:51:56.046Z,22.46
2023-05-23T04:52:56.113Z,22.45
2023-05-23T04:53:56.017Z,22.48
2023-05-23T04:54:56.022Z,22.47
2023-05-23T04:55:56.043Z,22.46
2023-05-23T04:56:55.986Z,22.47
2023-05-23T04:57:55.966Z,22.46
2023-05-23T04:58:55.959Z,22.45
2023-05-23T04:59:55.947Z,22.45
2023-05-23T05:00:55.953Z,22.48
2023-05-23T05:01:55.926Z,22.47
2023-05-23T05:02:55.944Z,22.47
2023-05-23T05:03:55.954Z,22.48
2023-05-23T05:04:55.915Z,22.48
2023-05-23T05:05:55.892Z,22.47
2023-05-23T05:06:55.880Z,22.49
2023-05-23T05:07:55.877Z,22.47
2023-05-23T05:08:55.959Z,22.47
2023-05-23T05:09:56.778Z,22.47
2023-05-23T05:10:55.838Z,22.46
2023-05-23T05:11:55.807Z,22.45
2023-05-23T05:12:55.817Z,22.45
2023-05-23T05:13:55.787Z,22.45
2023-05-23T05:14:55.811Z,22.45
2023-05-23T05:15:55.791Z,22.44
2023-05-23T05:16:55.784Z,22.44
2023-05-23T05:17:55.775Z,22.45
2023-05-23T05:18:55.767Z,22.45
2023-05-23T05:19:55.717Z,22.46
2023-05-23T05:20:55.703Z,22.46
2023-05-23T05:21:55.691Z,22.47
2023-05-23T05:22:55.672Z,22.45
2023-05-23T05:23:55.658Z,22.44
2023-05-23T05:24:55.674Z,22.45
2023-05-23T05:25:55.627Z,22.46
2023-05-23T05:26:55.630Z,22.46
2023-05-23T05:27:55.594Z,22.45
2023-05-23T05:28:55.667Z,22.45
2023-05-23T05:29:55.563Z,22.46
2023-05-23T05:30:55.661Z,22.44
2023-05-23T05:31:55.541Z,22.45
2023-05-23T05:32:55.542Z,22.45
2023-05-23T05:33:55.653Z,22.45
2023-05-23T05:34:55.534Z,22.45
2023-05-23T05:35:55.482Z,22.41
2023-05-23T05:36:55.478Z,22.42
2023-05-23T05:37:55.486Z,22.43
2023-05-23T05:38:55.462Z,22.43
2023-05-23T05:39:55.444Z,22.39
2023-05-23T05:40:55.519Z,22.43
2023-05-23T05:41:55.429Z,22.46
2023-05-23T05:42:55.388Z,22.47
2023-05-23T05:43:55.363Z,22.51
2023-05-23T05:44:55.361Z,22.49
2023-05-23T05:45:55.423Z,22.51
2023-05-23T05:46:55.334Z,22.54
2023-05-23T05:47:55.316Z,22.54
2023-05-23T05:48:55.330Z,22.54
2023-05-23T05:49:55.261Z,22.59
2023-05-23T05:50:55.239Z,22.65
2023-05-23T05:51:55.233Z,22.72
2023-05-23T05:52:55.197Z,22.79
2023-05-23T05:53:55.180Z,22.84
2023-05-23T05:54:55.173Z,22.89
2023-05-23T05:55:55.165Z,22.92
2023-05-23T05:56:55.297Z,22.95
2023-05-23T05:57:55.291Z,22.97
2023-05-23T05:58:55.325Z,22.99
2023-05-23T05:59:55.357Z,23.01
2023-05-23T06:00:55.387Z,23.02
2023-05-23T06:01:55.419Z,23.04
2023-05-23T06:02:55.569Z,23.05
2023-05-23T06:03:55.640Z,23.07
2023-05-23T06:04:55.573Z,23.07
2023-05-23T06:05:55.553Z,23.09
2023-05-23T06:06:55.564Z,23.09
2023-05-23T06:07:55.633Z,23.10
2023-05-23T06:08:55.698Z,23.11
2023-05-23T06:09:55.639Z,23.13
2023-05-23T06:10:55.608Z,23.14
2023-05-23T06:11:55.664Z,23.17
2023-05-23T06:12:55.662Z,23.18
2023-05-23T06:13:55.575Z,23.20
2023-05-23T06:14:55.987Z,23.21
2023-05-23T06:15:55.542Z,23.23
2023-05-23T06:16:55.554Z,23.23
2023-05-23T06:17:55.531Z,23.24
2023-05-23T06:18:55.668Z,23.25
2023-05-23T06:19:55.625Z,23.27
2023-05-23T06:20:56.557Z,23.27
2023-05-23T06:21:55.725Z,23.28
2023-05-23T06:22:55.772Z,23.28
2023-05-23T06:23:55.834Z,23.25
2023-05-23T06:24:55.900Z,23.25
2023-05-23T06:25:55.912Z,23.25
2023-05-23T06:26:55.985Z,23.26
2023-05-23T06:27:56.012Z,23.28
2023-05-23T06:28:56.166Z,23.30
2023-05-23T06:29:56.148Z,23.32
2023-05-23T06:30:56.207Z,23.33
2023-05-23T06:31:56.227Z,23.34
2023-05-23T06:32:56.217Z,23.35
2023-05-23T06:33:57.079Z,23.35
2023-05-23T06:34:56.115Z,23.36
2023-05-23T06:35:56.081Z,23.36
2023-05-23T06:36:56.079Z,23.36
2023-05-23T06:37:56.062Z,23.38
2023-05-23T06:38:56.561Z,23.39
2023-05-23T06:39:56.014Z,23.34
2023-05-23T06:40:56.006Z,23.06
2023-05-23T06:41:56.086Z,23.02
2023-05-23T06:42:56.107Z,23.09
2023-05-23T06:43:56.158Z,23.10
2023-05-23T06:44:56.286Z,23.13
2023-05-23T06:45:56.277Z,23.17
2023-05-23T06:46:56.263Z,23.23
2023-05-23T06:47:56.387Z,23.27
2023-05-23T06:49:06.470Z,23.31
2023-05-23T06:49:57.332Z,23.34
2023-05-23T06:50:56.351Z,23.38
2023-05-23T06:51:56.332Z,23.40
2023-05-23T06:52:56.248Z,23.43
2023-05-23T06:53:56.224Z,23.45
2023-05-23T06:54:56.225Z,23.47
2023-05-23T06:55:56.185Z,23.49
2023-05-23T06:56:56.172Z,23.52
2023-05-23T06:57:57.091Z,23.54
2023-05-23T06:58:56.204Z,23.55
2023-05-23T06:59:56.114Z,23.56
2023-05-23T07:00:56.096Z,23.57
2023-05-23T07:01:56.050Z,23.58
2023-05-23T07:02:56.030Z,23.61
2023-05-23T07:03:55.988Z,23.63
2023-05-23T07:04:55.991Z,23.66
2023-05-23T07:05:56.010Z,23.67
2023-05-23T07:06:55.922Z,23.69
2023-05-23T07:07:55.939Z,23.72
2023-05-23T07:08:55.926Z,23.73
2023-05-23T07:09:55.968Z,23.76
2023-05-23T07:10:55.980Z,23.77
2023-05-23T07:11:55.961Z,23.79
2023-05-23T07:12:55.972Z,23.81
2023-05-23T07:13:56.009Z,23.82
2023-05-23T07:14:55.999Z,23.83
2023-05-23T07:15:56.009Z,23.85
2023-05-23T07:16:56.117Z,23.87
2023-05-23T07:17:56.086Z,23.88
2023-05-23T07:18:56.036Z,23.89
2023-05-23T07:19:56.049Z,23.92
2023-05-23T07:20:56.012Z,23.94
2023-05-23T07:21:56.019Z,23.95
2023-05-23T07:22:56.043Z,23.95
2023-05-23T07:23:56.016Z,23.97
2023-05-23T07:24:56.024Z,23.97
2023-05-23T07:26:02.394Z,23.97
2023-05-23T07:26:57.080Z,23.99
2023-05-23T07:27:55.986Z,24.00
2023-05-23T07:28:55.932Z,24.02
2023-05-23T07:29:55.888Z,24.04
2023-05-23T07:30:55.932Z,24.05
2023-05-23T07:31:55.858Z,24.05
2023-05-23T07:32:55.790Z,24.06
2023-05-23T07:33:55.967Z,24.05
2023-05-23T07:34:55.768Z,24.07
2023-05-23T07:35:55.699Z,24.08
2023-05-23T07:36:55.674Z,24.08
2023-05-23T07:37:55.647Z,24.09
2023-05-23T07:38:55.609Z,24.10
2023-05-23T07:39:55.571Z,24.12
2023-05-23T07:41:07.395Z,24.13
2023-05-23T07:41:56.518Z,24.12
2023-05-23T07:42:55.509Z,24.15
2023-05-23T07:43:55.444Z,24.16
2023-05-23T07:44:55.417Z,24.18
2023-05-23T07:45:55.364Z,24.19
2023-05-23T07:46:55.501Z,24.21
2023-05-23T07:47:55.337Z,24.22
2023-05-23T07:48:55.269Z,24.21
2023-05-23T07:49:55.238Z,24.21
2023-05-23T07:50:55.192Z,24.22
2023-05-23T07:51:55.153Z,24.23
2023-05-23T07:52:55.124Z,24.23
2023-05-23T07:53:55.103Z,24.10
2023-05-23T07:54:55.142Z,24.10
2023-05-23T07:55:55.053Z,24.13
2023-05-23T07:56:54.996Z,24.16
2023-05-23T07:57:54.951Z,24.20
2023-05-23T07:58:54.914Z,24.20
2023-05-23T07:59:54.888Z,24.20
2023-05-23T08:00:54.864Z,24.18
2023-05-23T08:01:54.879Z,24.18
2023-05-23T08:02:54.939Z,24.19
2023-05-23T08:03:54.821Z,24.20
2023-05-23T08:04:54.850Z,24.19
2023-05-23T08:05:54.764Z,24.20
2023-05-23T08:07:05.171Z,24.21
2023-05-23T08:07:55.661Z,24.21
2023-05-23T08:08:54.762Z,24.21
2023-05-23T08:09:54.600Z,24.21
2023-05-23T08:10:54.601Z,24.22
2023-05-23T08:11:55.093Z,24.21
2023-05-23T08:12:54.508Z,24.22
2023-05-23T08:13:54.530Z,24.22
2023-05-23T08:14:54.559Z,24.21
2023-05-23T08:15:54.430Z,24.22
2023-05-23T08:16:54.494Z,24.21
2023-05-23T08:17:54.474Z,24.21
2023-05-23T08:18:54.338Z,24.21
2023-05-23T08:19:54.307Z,24.21
2023-05-23T08:20:54.253Z,24.22
2023-05-23T08:21:54.237Z,24.21
2023-05-23T08:22:54.169Z,24.22
2023-05-23T08:23:54.138Z,24.21
2023-05-23T08:24:54.113Z,24.21
2023-05-23T08:25:54.082Z,24.21
2023-05-23T08:26:54.038Z,24.21
2023-05-23T08:27:54.025Z,24.21
2023-05-23T08:28:53.963Z,24.22
2023-05-23T08:29:53.932Z,24.23
2023-05-23T08:30:53.882Z,24.18
2023-05-23T08:31:54.643Z,24.20
2023-05-23T08:32:53.802Z,24.23
2023-05-23T08:33:53.779Z,24.18
2023-05-23T08:34:54.143Z,24.11
2023-05-23T08:35:53.679Z,24.10
2023-05-23T08:36:53.668Z,23.95
2023-05-23T08:37:53.619Z,23.54
2023-05-23T08:38:53.619Z,23.26
2023-05-23T08:39:53.552Z,22.92
2023-05-23T08:40:53.553Z,22.61
2023-05-23T08:41:53.545Z,22.38
2023-05-23T08:42:53.638Z,22.20
2023-05-23T08:43:53.502Z,22.05
2023-05-23T08:44:54.104Z,21.95
2023-05-23T08:45:53.497Z,21.87
2023-05-23T08:46:53.442Z,21.88
2023-05-23T08:47:53.500Z,21.80
2023-05-23T08:48:53.391Z,21.94
2023-05-23T08:49:53.398Z,21.98
2023-05-23T08:50:53.376Z,22.01
2023-05-23T08:51:53.365Z,22.01
2023-05-23T08:52:53.352Z,22.10
2023-05-23T08:53:53.360Z,22.16
2023-05-23T08:54:53.299Z,22.04
2023-05-23T08:55:53.327Z,22.07
2023-05-23T08:56:53.303Z,22.02
2023-05-23T08:57:53.270Z,22.01
2023-05-23T08:58:53.332Z,21.91
2023-05-23T08:59:53.327Z,21.96
2023-05-23T09:00:53.218Z,21.95
2023-05-23T09:01:53.339Z,21.98
2023-05-23T09:02:54.135Z,21.97
2023-05-23T09:03:53.255Z,21.95
2023-05-23T09:04:53.214Z,22.10
2023-05-23T09:05:53.441Z,22.27
2023-05-23T09:06:53.313Z,22.36
2023-05-23T09:07:53.432Z,22.42
2023-05-23T09:08:53.361Z,22.46
2023-05-23T09:09:53.630Z,22.35
2023-05-23T09:10:53.308Z,22.45
2023-05-23T09:11:53.406Z,22.36
2023-05-23T09:12:53.397Z,22.30
2023-05-23T09:13:53.435Z,22.05
2023-05-23T09:14:53.431Z,21.97
2023-05-23T09:15:53.442Z,22.05
2023-05-23T09:16:53.421Z,21.89
2023-05-23T09:17:53.446Z,21.78
2023-05-23T09:18:53.512Z,21.87
2023-05-23T09:19:53.737Z,21.96
2023-05-23T09:20:53.428Z,22.16
2023-05-23T09:21:53.462Z,22.33
2023-05-23T09:22:53.481Z,22.49
2023-05-23T09:23:53.555Z,22.62
2023-05-23T09:24:53.640Z,22.73
2023-05-23T09:25:53.628Z,22.83
2023-05-23T09:26:53.701Z,22.94
2023-05-23T09:27:53.759Z,23.02
2023-05-23T09:28:53.757Z,23.10
2023-05-23T09:29:53.800Z,23.18
2023-05-23T09:30:53.835Z,23.25
2023-05-23T09:31:53.878Z,23.30
2023-05-23T09:32:53.942Z,23.37
2023-05-23T09:33:53.910Z,23.43
2023-05-23T09:34:53.907Z,23.48
2023-05-23T09:35:53.888Z,23.52
2023-05-23T09:36:53.862Z,23.57
2023-05-23T09:37:53.813Z,23.61
2023-05-23T09:38:53.835Z,23.64
2023-05-23T09:39:53.791Z,23.61
2023-05-23T09:40:53.716Z,23.65
2023-05-23T09:41:54.648Z,23.69
2023-05-23T09:42:53.665Z,23.72
2023-05-23T09:43:53.654Z,23.54
2023-05-23T09:44:53.618Z,23.48
2023-05-23T09:45:53.627Z,23.53
2023-05-23T09:46:55.820Z,23.60
2023-05-23T09:47:53.660Z,23.67
2023-05-23T09:48:53.521Z,23.73
2023-05-23T09:49:53.483Z,23.75
2023-05-23T09:50:53.493Z,23.78
2023-05-23T09:51:53.503Z,23.77
2023-05-23T09:52:53.547Z,23.81
2023-05-23T09:53:53.493Z,23.81
2023-05-23T09:54:53.489Z,23.83
2023-05-23T09:55:53.492Z,23.86
2023-05-23T09:56:53.526Z,23.83
2023-05-23T09:57:53.533Z,23.19
2023-05-23T09:58:53.546Z,23.00
2023-05-23T09:59:53.616Z,23.17
2023-05-23T10:00:53.605Z,23.31
2023-05-23T10:01:53.614Z,23.39
2023-05-23T10:02:53.637Z,23.44
2023-05-23T10:03:53.589Z,23.49
2023-05-23T10:04:53.655Z,23.56
2023-05-23T10:05:53.661Z,23.61
2023-05-23T10:06:53.752Z,23.64
2023-05-23T10:07:53.578Z,23.67
2023-05-23T10:08:53.458Z,23.69
2023-05-23T10:09:53.424Z,23.73
2023-05-23T10:10:53.376Z,23.76
2023-05-23T10:11:53.342Z,23.77
2023-05-23T10:12:54.194Z,23.78
2023-05-23T10:13:54.144Z,23.79
2023-05-23T10:14:53.493Z,23.82
2023-05-23T10:15:53.358Z,23.84
2023-05-23T10:16:53.478Z,23.87
2023-05-23T10:17:53.288Z,23.89
2023-05-23T10:18:53.408Z,23.91
2023-05-23T10:19:53.384Z,23.94
2023-05-23T10:20:53.336Z,23.96
2023-05-23T10:21:53.425Z,24.00
2023-05-23T10:22:53.438Z,24.02
2023-05-23T10:23:53.379Z,24.04
2023-05-23T10:24:53.191Z,24.05
2023-05-23T10:25:53.207Z,24.08
2023-05-23T10:26:53.153Z,24.11
2023-05-23T10:27:54.287Z,24.13
2023-05-23T10:28:53.150Z,24.16
2023-05-23T10:29:53.661Z,24.18
2023-05-23T10:30:53.729Z,24.21
2023-05-23T10:31:53.037Z,24.24
2023-05-23T10:32:53.110Z,24.26
2023-05-23T10:33:53.136Z,24.27
2023-05-23T10:34:53.105Z,24.28
2023-05-23T10:35:53.241Z,24.31
2023-05-23T10:36:53.044Z,24.31
2023-05-23T10:37:52.884Z,24.26
2023-05-23T10:38:52.857Z,24.13
2023-05-23T10:39:52.862Z,24.15
2023-05-23T10:40:52.823Z,24.18
2023-05-23T10:41:52.791Z,24.21
2023-05-23T10:42:52.786Z,24.26
2023-05-23T10:43:52.729Z,24.28
2023-05-23T10:44:52.685Z,24.31
2023-05-23T10:45:52.674Z,24.32
2023-05-23T10:46:52.765Z,24.32
2023-05-23T10:47:52.662Z,24.33
2023-05-23T10:48:52.547Z,24.29
2023-05-23T10:49:52.570Z,24.29
2023-05-23T10:50:52.463Z,24.29
2023-05-23T10:51:52.431Z,24.30
2023-05-23T10:52:52.402Z,24.29
2023-05-23T10:53:52.366Z,24.28
2023-05-23T10:54:52.333Z,24.27
2023-05-23T10:55:52.297Z,24.27
2023-05-23T10:56:52.229Z,24.25
2023-05-23T10:57:52.245Z,24.23
2023-05-23T10:58:52.157Z,24.20
2023-05-23T10:59:52.171Z,24.15
2023-05-23T11:00:52.302Z,24.14
2023-05-23T11:01:52.112Z,24.13
2023-05-23T11:02:52.076Z,24.12
2023-05-23T11:03:53.989Z,24.11
2023-05-23T11:04:51.955Z,24.14
2023-05-23T11:05:51.909Z,24.10
2023-05-23T11:06:51.878Z,24.10
2023-05-23T11:07:51.844Z,24.12
2023-05-23T11:08:51.808Z,24.13
2023-05-23T11:09:51.779Z,24.14
2023-05-23T11:10:51.740Z,24.16
2023-05-23T11:11:51.689Z,24.17
2023-05-23T11:12:51.645Z,24.16
2023-05-23T11:13:51.614Z,24.17
2023-05-23T11:14:53.257Z,24.17
2023-05-23T11:15:51.625Z,24.16
2023-05-23T11:16:51.694Z,24.18
2023-05-23T11:17:51.468Z,24.17
2023-05-23T11:18:51.450Z,24.18
2023-05-23T11:19:51.380Z,24.17
2023-05-23T11:20:53.068Z,24.16
2023-05-23T11:21:51.308Z,24.16
2023-05-23T11:22:51.281Z,24.16
2023-05-23T11:23:51.254Z,24.15
2023-05-23T11:24:51.214Z,24.15
2023-05-23T11:25:51.185Z,24.15
2023-05-23T11:26:52.915Z,24.14
2023-05-23T11:27:51.101Z,24.12
2023-05-23T11:28:51.117Z,24.13
2023-05-23T11:29:51.161Z,24.14
2023-05-23T11:30:51.116Z,24.14
2023-05-23T11:31:51.017Z,24.14
2023-05-23T11:32:50.959Z,24.12
2023-05-23T11:33:50.867Z,24.13
2023-05-23T11:34:50.837Z,24.14
2023-05-23T11:35:50.801Z,24.14
2023-05-23T11:36:50.782Z,24.13
2023-05-23T11:37:50.755Z,24.12
2023-05-23T11:38:50.679Z,24.13
2023-05-23T11:39:50.690Z,24.12
2023-05-23T11:40:50.613Z,24.11
2023-05-23T11:41:50.586Z,24.12
2023-05-23T11:42:51.694Z,24.13
2023-05-23T11:43:50.505Z,24.12
2023-05-23T11:44:50.468Z,24.12
2023-05-23T11:45:50.548Z,24.12
2023-05-23T11:46:50.416Z,24.13
2023-05-23T11:47:50.367Z,24.13
2023-05-23T11:48:51.325Z,24.12
2023-05-23T11:49:50.377Z,24.12
2023-05-23T11:50:50.295Z,24.13
2023-05-23T11:51:50.304Z,24.13
2023-05-23T11:52:50.161Z,24.12
2023-05-23T11:53:50.115Z,24.12
2023-05-23T11:54:50.574Z,24.13
2023-05-23T11:55:50.053Z,24.12
2023-05-23T11:56:50.608Z,24.13
2023-05-23T11:57:49.992Z,24.12
2023-05-23T11:58:49.981Z,24.12
2023-05-23T11:59:49.923Z,24.12
2023-05-23T12:00:49.882Z,24.11
2023-05-23T12:01:49.872Z,24.11
2023-05-23T12:02:50.007Z,24.10
2023-05-23T12:03:49.952Z,24.10
2023-05-23T12:04:49.818Z,24.10
2023-05-23T12:05:49.749Z,24.11
2023-05-23T12:06:49.766Z,24.10
2023-05-23T12:07:49.835Z,24.10
2023-05-23T12:08:49.807Z,24.10
2023-05-23T12:09:49.760Z,24.11
2023-05-23T12:10:49.749Z,24.10
2023-05-23T12:11:49.767Z,24.09
2023-05-23T12:12:49.772Z,24.09
2023-05-23T12:13:50.538Z,24.10
2023-05-23T12:14:49.738Z,24.11
2023-05-23T12:15:49.746Z,24.11
2023-05-23T12:16:49.734Z,24.10
2023-05-23T12:17:49.655Z,24.11
2023-05-23T12:18:49.657Z,24.11
2023-05-23T12:19:49.586Z,24.11
2023-05-23T12:20:49.577Z,24.13
2023-05-23T12:21:49.522Z,24.13
2023-05-23T12:22:49.483Z,24.14
2023-05-23T12:23:49.455Z,24.14
2023-05-23T12:24:49.452Z,24.14
2023-05-23T12:25:49.393Z,24.13
2023-05-23T12:26:49.410Z,24.13
2023-05-23T12:27:49.289Z,24.13
2023-05-23T12:28:49.251Z,24.13
2023-05-23T12:29:49.265Z,24.14
2023-05-23T12:30:49.188Z,24.15
2023-05-23T12:31:49.216Z,24.15
2023-05-23T12:32:49.182Z,24.14
2023-05-23T12:33:49.566Z,24.15
2023-05-23T12:34:49.055Z,24.15
2023-05-23T12:35:49.016Z,24.15
2023-05-23T12:36:50.720Z,24.15
2023-05-23T12:37:48.964Z,24.14
2023-05-23T12:38:48.982Z,24.13
2023-05-23T12:39:48.898Z,24.13
2023-05-23T12:40:48.845Z,24.13
2023-05-23T12:41:48.809Z,24.14
2023-05-23T12:42:48.801Z,24.14
2023-05-23T12:43:48.708Z,24.14
2023-05-23T12:44:48.681Z,24.13
2023-05-23T12:45:48.664Z,24.14
2023-05-23T12:46:48.668Z,24.15
2023-05-23T12:47:49.452Z,24.15
2023-05-23T12:48:48.545Z,24.16
2023-05-23T12:49:48.511Z,24.19
2023-05-23T12:50:48.479Z,24.19
2023-05-23T12:51:48.445Z,24.19
2023-05-23T12:52:48.390Z,24.18